Time;durP1;ratioP1;P1;durP2;ratioP2;P2;SDS_P1;SDS_P2;PMS_P1;PMS_P2;Temp;Humidity;BMP_temperature;BMP_pressure;BME280_temperature;BME280_humidity;BME280_pressure;Samples;Min_cycle;Max_cycle;Signal;HPM_P1;HPM_P2
2022/11/24 00:01:33;;;;;;;15.73;9.00;;;8.40;99.90;;;;;;5064913;28;20462;-68
2022/11/24 00:04:01;;;;;;;21.90;9.60;;;8.50;99.90;;;;;;5052458;28;20483;-68
2022/11/24 00:06:30;;;;;;;16.37;8.97;;;8.50;99.90;;;;;;5060683;28;20462;-68
2022/11/24 00:08:59;;;;;;;17.40;8.77;;;8.50;99.90;;;;;;5053981;28;20456;-68
2022/11/24 00:11:29;;;;;;;22.77;8.93;;;8.50;99.90;;;;;;5059496;28;21072;-68
2022/11/24 00:13:58;;;;;;;11.03;8.53;;;8.50;99.90;;;;;;5057131;28;21160;-67
2022/11/24 00:16:27;;;;;;;17.37;8.77;;;8.50;99.90;;;;;;5060066;28;20708;-67
2022/11/24 00:18:55;;;;;;;22.97;9.37;;;8.50;99.90;;;;;;5057056;28;20465;-67
2022/11/24 00:21:23;;;;;;;10.20;8.20;;;8.50;99.90;;;;;;5056546;28;20463;-67
2022/11/24 00:23:50;;;;;;;14.63;9.67;;;8.50;99.90;;;;;;5053146;28;20468;-68
2022/11/24 00:26:20;;;;;;;24.97;9.07;;;8.50;99.90;;;;;;5058958;28;20463;-67
2022/11/24 00:28:49;;;;;;;18.60;8.77;;;8.50;99.90;;;;;;5061972;28;20471;-68
2022/11/24 00:31:17;;;;;;;12.33;9.17;;;8.50;99.90;;;;;;5054817;28;20466;-67
2022/11/24 00:33:44;;;;;;;12.57;8.60;;;8.40;99.90;;;;;;5055263;28;20494;-68
2022/11/24 00:36:12;;;;;;;10.07;9.10;;;8.40;99.90;;;;;;5059309;28;20464;-68
2022/11/24 00:38:39;;;;;;;14.37;8.50;;;8.30;99.90;;;;;;5053763;28;20490;-68
2022/11/24 00:41:07;;;;;;;15.17;8.93;;;8.30;99.90;;;;;;5058314;28;20538;-68
2022/11/24 00:43:35;;;;;;;9.67;8.63;;;8.30;99.90;;;;;;5058176;28;20489;-68
2022/11/24 00:46:02;;;;;;;12.97;8.53;;;8.30;99.90;;;;;;5055931;28;20610;-67
2022/11/24 00:48:30;;;;;;;13.13;8.87;;;8.30;99.90;;;;;;5060745;28;20829;-67
2022/11/24 00:50:59;;;;;;;20.43;9.10;;;8.20;99.90;;;;;;5061838;28;20462;-68
2022/11/24 00:53:26;;;;;;;16.27;9.50;;;8.20;99.90;;;;;;5056272;28;20459;-68
2022/11/24 00:55:54;;;;;;;21.63;9.07;;;8.30;99.90;;;;;;5050396;28;20459;-67
2022/11/24 00:58:22;;;;;;;11.80;7.60;;;8.30;99.90;;;;;;5055281;28;20497;-67
2022/11/24 01:00:51;;;;;;;17.33;8.00;;;8.40;99.90;;;;;;5063206;28;20470;-67
2022/11/24 01:03:19;;;;;;;15.20;9.20;;;8.40;99.90;;;;;;5058137;28;20459;-68
2022/11/24 01:05:47;;;;;;;14.83;8.70;;;8.50;99.90;;;;;;5057281;28;21036;-68
2022/11/24 01:08:14;;;;;;;18.93;9.03;;;8.50;99.90;;;;;;5063064;28;20464;-67
2022/11/24 01:10:41;;;;;;;16.23;9.03;;;8.50;99.90;;;;;;5065100;28;20512;-68
2022/11/24 01:13:09;;;;;;;19.97;8.97;;;8.50;99.90;;;;;;5056047;28;20458;-67
2022/11/24 01:15:36;;;;;;;26.23;9.20;;;8.50;99.90;;;;;;5058103;28;20460;-67
2022/11/24 01:18:05;;;;;;;15.87;8.00;;;8.40;99.90;;;;;;5055318;28;20490;-67
2022/11/24 01:20:32;;;;;;;12.20;8.70;;;8.40;99.90;;;;;;5060062;28;20467;-67
2022/11/24 01:23:00;;;;;;;18.73;9.73;;;8.40;99.90;;;;;;5064369;28;20474;-67
2022/11/24 01:25:27;;;;;;;18.30;8.90;;;8.40;99.90;;;;;;5063440;28;20473;-67
2022/11/24 01:27:54;;;;;;;19.60;9.60;;;8.40;99.90;;;;;;5056758;28;20960;-67
2022/11/24 01:30:21;;;;;;;15.33;9.37;;;8.40;99.90;;;;;;5063524;28;20818;-68
2022/11/24 01:32:49;;;;;;;19.43;9.10;;;8.30;99.90;;;;;;5060310;28;20747;-67
2022/11/24 01:35:17;;;;;;;20.80;10.30;;;8.40;99.90;;;;;;5062614;28;20831;-67
2022/11/24 01:37:45;;;;;;;11.63;8.47;;;8.40;99.90;;;;;;5060706;28;20493;-68
2022/11/24 01:40:12;;;;;;;16.83;8.70;;;8.50;99.90;;;;;;5057585;28;21039;-67
2022/11/24 01:42:48;;;;;;;19.97;9.50;;;8.40;99.90;;;;;;5058951;28;20538;-67
2022/11/24 01:45:32;;;;;;;15.90;8.93;;;8.40;99.90;;;;;;5057312;28;20479;-67
2022/11/24 01:48:01;;;;;;;24.20;9.70;;;8.40;99.90;;;;;;5061223;28;20462;-67
2022/11/24 01:50:30;;;;;;;14.20;8.10;;;8.50;99.90;;;;;;5056020;28;20463;-67
2022/11/24 01:52:58;;;;;;;16.23;8.57;;;8.50;99.90;;;;;;5060402;28;20467;-67
2022/11/24 01:55:31;;;;;;;19.03;9.17;;;8.60;99.90;;;;;;5058750;28;20563;-67
2022/11/24 01:58:03;;;;;;;20.37;9.13;;;8.60;99.90;;;;;;5054483;28;20669;-68
2022/11/24 02:00:32;;;;;;;18.83;8.57;;;8.60;99.90;;;;;;5062759;28;20828;-67
2022/11/24 02:02:59;;;;;;;20.70;9.30;;;8.70;99.90;;;;;;5058659;28;21271;-67
2022/11/24 02:05:33;;;;;;;16.00;9.53;;;8.70;99.90;;;;;;5059697;28;20677;-67
2022/11/24 02:08:01;;;;;;;13.37;8.97;;;8.70;99.90;;;;;;5061184;28;20471;-67
2022/11/24 02:10:29;;;;;;;23.67;9.10;;;8.80;99.90;;;;;;5066155;28;20463;-67
2022/11/24 02:12:58;;;;;;;28.97;9.97;;;8.80;99.90;;;;;;5062548;28;20462;-68
2022/11/24 02:15:27;;;;;;;23.40;10.07;;;8.90;99.90;;;;;;5059404;28;20463;-68
2022/11/24 02:17:53;;;;;;;17.27;9.03;;;8.90;99.90;;;;;;5058781;28;20502;-67
2022/11/24 02:20:22;;;;;;;23.83;10.03;;;9.00;99.90;;;;;;5059298;28;21044;-68
2022/11/24 02:22:57;;;;;;;13.60;8.93;;;9.00;99.90;;;;;;5063596;28;20460;-68
2022/11/24 02:25:31;;;;;;;16.60;10.23;;;9.00;99.90;;;;;;5062210;28;20465;-67
2022/11/24 02:28:01;;;;;;;23.13;10.00;;;9.00;99.90;;;;;;5050988;28;20480;-67
2022/11/24 02:30:28;;;;;;;16.63;9.20;;;9.00;99.90;;;;;;5060061;28;20468;-67
2022/11/24 02:32:55;;;;;;;15.87;9.03;;;9.00;99.90;;;;;;5062831;28;20874;-68
2022/11/24 02:35:22;;;;;;;15.93;8.80;;;9.00;99.90;;;;;;5062898;28;20516;-68
2022/11/24 02:37:48;;;;;;;12.43;9.60;;;9.00;99.90;;;;;;5061005;28;20866;-67
2022/11/24 02:40:18;;;;;;;14.80;9.07;;;8.90;99.90;;;;;;5064452;28;20930;-67
2022/11/24 02:42:46;;;;;;;15.43;11.00;;;8.90;99.90;;;;;;5061758;28;20485;-68
2022/11/24 02:45:16;;;;;;;18.80;9.30;;;8.90;99.90;;;;;;5057478;28;20505;-68
2022/11/24 02:47:43;;;;;;;20.60;10.70;;;8.90;99.90;;;;;;5058975;28;20467;-68
2022/11/24 02:50:10;;;;;;;28.10;11.60;;;8.90;99.90;;;;;;5061594;28;20978;-68
2022/11/24 02:52:36;;;;;;;20.17;10.70;;;8.90;99.90;;;;;;5058430;28;20463;-68
2022/11/24 02:55:04;;;;;;;25.73;10.30;;;8.80;99.90;;;;;;5060996;28;20463;-68
2022/11/24 02:57:30;;;;;;;26.70;9.90;;;8.80;99.90;;;;;;5057238;28;20499;-68
2022/11/24 02:59:57;;;;;;;17.83;10.03;;;8.80;99.90;;;;;;5061085;28;20459;-67
2022/11/24 03:02:26;;;;;;;12.10;9.70;;;8.80;99.90;;;;;;5061653;28;20985;-67
2022/11/24 03:04:53;;;;;;;14.03;8.63;;;8.80;99.90;;;;;;5057268;28;20857;-67
2022/11/24 03:07:20;;;;;;;19.70;10.17;;;8.70;99.90;;;;;;5064493;28;20501;-68
2022/11/24 03:09:46;;;;;;;21.57;10.23;;;8.70;99.90;;;;;;5062099;28;20550;-68
2022/11/24 03:12:13;;;;;;;19.87;10.73;;;8.80;99.90;;;;;;5058066;28;20908;-68
2022/11/24 03:14:40;;;;;;;22.97;9.67;;;8.80;99.90;;;;;;5060615;28;20463;-68
2022/11/24 03:17:07;;;;;;;21.13;9.63;;;8.80;99.90;;;;;;5053566;28;20483;-68
2022/11/24 03:19:35;;;;;;;23.30;10.07;;;8.80;99.90;;;;;;5061305;28;20467;-68
2022/11/24 03:22:02;;;;;;;19.93;11.20;;;8.80;99.90;;;;;;5060893;28;20461;-68
2022/11/24 03:24:29;;;;;;;22.90;9.90;;;8.90;99.90;;;;;;5061273;28;20461;-67
2022/11/24 03:26:56;;;;;;;20.37;9.80;;;9.00;99.90;;;;;;5056196;28;20465;-68
2022/11/24 03:29:23;;;;;;;22.10;10.87;;;9.00;99.90;;;;;;5058740;28;20462;-68
2022/11/24 03:31:50;;;;;;;24.17;10.03;;;9.00;99.90;;;;;;5060005;28;20473;-68
2022/11/24 03:34:16;;;;;;;14.10;9.97;;;9.00;99.90;;;;;;5061691;28;20457;-67
2022/11/24 03:36:45;;;;;;;33.03;11.20;;;9.10;99.90;;;;;;5065134;28;20459;-68
2022/11/24 03:39:12;;;;;;;19.67;11.03;;;9.10;99.90;;;;;;5059259;28;20491;-68
2022/11/24 03:41:39;;;;;;;27.70;12.63;;;9.00;99.90;;;;;;5057447;28;20609;-68
2022/11/24 03:44:05;;;;;;;17.40;10.17;;;9.00;99.90;;;;;;5061512;28;20478;-67
2022/11/24 03:46:32;;;;;;;17.73;10.27;;;9.00;99.90;;;;;;5058543;28;20464;-68
2022/11/24 03:48:59;;;;;;;24.93;13.53;;;9.00;99.90;;;;;;5057198;28;20458;-67
2022/11/24 03:51:25;;;;;;;25.60;14.20;;;9.00;99.90;;;;;;5063049;28;21063;-67
2022/11/24 03:53:54;;;;;;;26.57;14.30;;;9.00;99.90;;;;;;5056583;28;21019;-67
2022/11/24 03:56:20;;;;;;;22.37;14.83;;;8.90;99.90;;;;;;5060253;28;21280;-68
2022/11/24 03:58:50;;;;;;;22.27;15.27;;;9.00;99.90;;;;;;5056994;28;20487;-67
2022/11/24 04:01:17;;;;;;;23.00;15.57;;;8.90;99.90;;;;;;5061285;28;20900;-68
2022/11/24 04:03:44;;;;;;;22.90;15.37;;;8.90;99.90;;;;;;5053275;28;20490;-68
2022/11/24 04:06:12;;;;;;;21.57;14.97;;;8.80;99.90;;;;;;5056451;28;20873;-68
2022/11/24 04:08:38;;;;;;;30.77;15.70;;;8.80;99.90;;;;;;5058470;28;20541;-68
2022/11/24 04:12:42;;;;;;;24.80;15.13;;;8.80;99.90;;;;;;5057425;28;20488;-68
2022/11/24 04:13:53;;;;;;;28.60;14.67;;;8.80;99.90;;;;;;5058610;28;20458;-68
2022/11/24 04:16:20;;;;;;;18.93;13.50;;;8.70;99.90;;;;;;5056798;28;20533;-68
2022/11/24 04:18:47;;;;;;;24.23;13.90;;;8.80;99.90;;;;;;5061487;28;20225;-68
2022/11/24 04:21:14;;;;;;;24.37;13.47;;;8.80;99.90;;;;;;5063066;28;20477;-68
2022/11/24 04:23:41;;;;;;;23.63;13.63;;;8.90;99.90;;;;;;5060683;28;20812;-68
2022/11/24 04:26:10;;;;;;;21.33;13.90;;;8.90;99.90;;;;;;5054219;28;20464;-68
2022/11/24 04:28:37;;;;;;;24.70;13.27;;;8.90;99.90;;;;;;5056492;28;20533;-68
2022/11/24 04:31:04;;;;;;;22.70;13.00;;;8.90;99.90;;;;;;5057541;28;20463;-68
2022/11/24 04:33:31;;;;;;;23.13;14.17;;;8.90;99.90;;;;;;5054151;28;20521;-67
2022/11/24 04:35:58;;;;;;;26.27;13.17;;;8.90;99.90;;;;;;5060852;28;20888;-68
2022/11/24 04:38:25;;;;;;;28.13;12.60;;;8.90;99.90;;;;;;5055009;28;20490;-70
2022/11/24 04:40:52;;;;;;;19.77;12.67;;;9.00;99.90;;;;;;5054263;28;20472;-68
2022/11/24 04:43:20;;;;;;;21.53;11.67;;;9.10;99.90;;;;;;5060254;28;20458;-68
2022/11/24 04:45:47;;;;;;;22.40;10.60;;;9.20;99.90;;;;;;5060822;28;20455;-68
2022/11/24 04:48:14;;;;;;;18.87;10.77;;;9.20;99.90;;;;;;5059865;28;20824;-68
2022/11/24 04:50:41;;;;;;;23.70;11.43;;;9.30;99.90;;;;;;5057204;28;20477;-68
2022/11/24 04:53:10;;;;;;;36.73;9.87;;;9.40;99.90;;;;;;5056452;28;20466;-68
2022/11/24 04:55:39;;;;;;;25.57;10.73;;;9.30;99.90;;;;;;5061187;28;20459;-68
2022/11/24 04:58:10;;;;;;;21.43;11.13;;;9.40;99.90;;;;;;5050367;28;20635;-67
2022/11/24 05:00:38;;;;;;;22.23;12.00;;;9.30;99.90;;;;;;5059503;28;20462;-68
2022/11/24 05:03:05;;;;;;;17.37;10.17;;;9.30;99.90;;;;;;5050736;28;20968;-68
2022/11/24 05:05:32;;;;;;;21.03;10.80;;;9.20;99.90;;;;;;5054951;28;20494;-68
2022/11/24 05:07:59;;;;;;;30.23;9.67;;;9.10;99.90;;;;;;5043049;28;20465;-69
2022/11/24 05:10:36;;;;;;;14.77;9.70;;;9.00;99.90;;;;;;5050546;28;20468;-68
2022/11/24 05:13:04;;;;;;;24.13;11.50;;;9.00;99.90;;;;;;5052323;28;20463;-68
2022/11/24 05:15:31;;;;;;;19.10;9.63;;;8.90;99.90;;;;;;5053594;28;20468;-68
2022/11/24 05:18:00;;;;;;;22.53;10.00;;;8.90;99.90;;;;;;5053288;28;20517;-68
2022/11/24 05:20:26;;;;;;;15.10;10.10;;;8.90;99.90;;;;;;5055490;28;20536;-69
2022/11/24 05:22:53;;;;;;;27.73;11.00;;;8.80;99.90;;;;;;5051955;28;21335;-67
2022/11/24 05:25:21;;;;;;;25.20;12.63;;;8.80;99.90;;;;;;5054811;28;20647;-69
2022/11/24 05:27:48;;;;;;;20.83;10.20;;;8.80;99.90;;;;;;5054544;28;20491;-69
2022/11/24 05:30:15;;;;;;;27.73;10.90;;;8.80;99.90;;;;;;5044169;28;20489;-68
2022/11/24 05:32:42;;;;;;;25.87;10.37;;;8.80;99.90;;;;;;5058499;28;20911;-68
2022/11/24 05:35:10;;;;;;;24.40;10.33;;;8.80;99.90;;;;;;5053293;28;20464;-68
2022/11/24 05:37:37;;;;;;;25.77;10.30;;;8.80;99.90;;;;;;5053904;28;20469;-68
2022/11/24 05:40:05;;;;;;;18.83;10.00;;;8.80;99.90;;;;;;5057357;28;20509;-69
2022/11/24 05:42:42;;;;;;;21.27;10.40;;;8.80;99.90;;;;;;5051687;28;20828;-68
2022/11/24 05:45:11;;;;;;;22.70;9.57;;;8.90;99.90;;;;;;5053215;28;21005;-68
2022/11/24 05:47:39;;;;;;;30.40;9.03;;;8.80;99.90;;;;;;5052386;28;20459;-68
2022/11/24 05:50:07;;;;;;;16.63;9.60;;;8.80;99.90;;;;;;5057570;28;20552;-68
2022/11/24 05:52:36;;;;;;;20.43;11.93;;;8.90;99.90;;;;;;5054553;28;20814;-68
2022/11/24 05:55:04;;;;;;;20.03;11.10;;;8.90;99.90;;;;;;5063548;28;20847;-67
2022/11/24 05:57:31;;;;;;;18.77;13.23;;;8.90;99.90;;;;;;5057736;28;20466;-68
2022/11/24 05:59:58;;;;;;;16.90;12.80;;;8.80;99.90;;;;;;5057951;28;21039;-68
2022/11/24 06:02:25;;;;;;;12.97;10.90;;;8.70;99.90;;;;;;5056552;28;20464;-68
2022/11/24 06:04:53;;;;;;;14.60;11.17;;;8.70;99.90;;;;;;5050826;28;20506;-68
2022/11/24 06:07:19;;;;;;;14.23;10.50;;;8.60;99.90;;;;;;5059301;28;20471;-68
2022/11/24 06:09:49;;;;;;;18.10;11.53;;;8.60;99.90;;;;;;5061209;28;20451;-68
2022/11/24 06:12:15;;;;;;;14.67;11.00;;;8.50;99.90;;;;;;5055838;28;20808;-68
2022/11/24 06:14:42;;;;;;;10.60;9.67;;;8.50;99.90;;;;;;5053599;28;20560;-69
2022/11/24 06:17:10;;;;;;;10.83;10.00;;;8.40;99.90;;;;;;5057013;28;20473;-68
2022/11/24 06:19:36;;;;;;;14.77;9.60;;;8.30;99.90;;;;;;5055425;28;20860;-67
2022/11/24 06:22:04;;;;;;;11.10;10.00;;;8.30;99.90;;;;;;5064533;28;20467;-68
2022/11/24 06:24:31;;;;;;;13.47;10.43;;;8.20;99.90;;;;;;5053856;28;20458;-68
2022/11/24 06:26:58;;;;;;;10.83;9.33;;;8.30;99.90;;;;;;5060202;28;21056;-68
2022/11/24 06:29:25;;;;;;;10.60;9.70;;;8.20;99.90;;;;;;5057298;28;20516;-68
2022/11/24 06:31:52;;;;;;;11.33;9.43;;;8.20;99.90;;;;;;5054113;28;20868;-68
2022/11/24 06:34:19;;;;;;;10.60;9.80;;;8.20;99.90;;;;;;5061215;28;20492;-68
2022/11/24 06:36:46;;;;;;;9.13;8.50;;;8.10;99.90;;;;;;5057308;28;20924;-67
2022/11/24 06:39:12;;;;;;;9.50;8.93;;;8.10;99.90;;;;;;5054862;28;21031;-67
2022/11/24 06:41:40;;;;;;;10.83;10.03;;;8.10;99.90;;;;;;5050792;28;20464;-68
2022/11/24 06:44:08;;;;;;;9.57;8.97;;;8.00;99.90;;;;;;5049869;28;20518;-68
2022/11/24 06:46:36;;;;;;;13.27;11.53;;;8.00;99.90;;;;;;5056284;28;20471;-67
2022/11/24 06:49:03;;;;;;;19.37;15.37;;;7.90;99.90;;;;;;5059727;28;20883;-67
2022/11/24 06:51:29;;;;;;;9.77;9.17;;;7.90;99.90;;;;;;5061367;28;20917;-68
2022/11/24 06:53:56;;;;;;;10.87;9.93;;;7.90;99.90;;;;;;5053007;28;20510;-68
2022/11/24 06:56:25;;;;;;;11.17;10.20;;;7.90;99.90;;;;;;5060448;28;20501;-68
2022/11/24 06:58:53;;;;;;;9.73;9.13;;;7.80;99.90;;;;;;5054290;28;20492;-68
2022/11/24 07:01:23;;;;;;;13.00;11.70;;;7.70;99.90;;;;;;5064414;28;20455;-68
2022/11/24 07:03:52;;;;;;;11.53;10.57;;;7.70;99.90;;;;;;5048100;28;20954;-68
2022/11/24 07:06:20;;;;;;;13.10;11.90;;;7.70;99.90;;;;;;5055342;28;20580;-68
2022/11/24 07:08:47;;;;;;;11.37;10.57;;;7.70;99.90;;;;;;5058023;28;20484;-67
2022/11/24 07:11:16;;;;;;;10.53;9.63;;;7.70;99.90;;;;;;5053297;28;20633;-68
2022/11/24 07:13:44;;;;;;;9.70;9.00;;;7.80;99.90;;;;;;5048440;28;20466;-68
2022/11/24 07:16:15;;;;;;;9.63;9.10;;;7.90;99.90;;;;;;5059989;28;21153;-68
2022/11/24 07:18:46;;;;;;;9.40;8.80;;;8.00;99.90;;;;;;5053393;28;20503;-67
2022/11/24 07:21:13;;;;;;;10.50;9.50;;;8.10;99.90;;;;;;5060634;28;20469;-68
2022/11/24 07:23:40;;;;;;;9.80;9.20;;;8.20;99.90;;;;;;5051240;28;21071;-68
2022/11/24 07:26:08;;;;;;;14.10;10.10;;;8.10;99.90;;;;;;5072452;28;21148;-68
2022/11/24 07:28:36;;;;;;;10.93;10.17;;;8.20;99.90;;;;;;5061829;28;20480;-68
2022/11/24 07:31:07;;;;;;;10.97;10.37;;;8.20;99.90;;;;;;5063016;28;20532;-68
2022/11/24 07:33:34;;;;;;;10.13;9.33;;;8.20;99.90;;;;;;5057660;28;20472;-68
2022/11/24 07:36:02;;;;;;;11.23;10.13;;;8.30;99.90;;;;;;5041999;28;20470;-68
2022/11/24 07:38:30;;;;;;;11.37;10.47;;;8.30;99.90;;;;;;5058177;28;20458;-68
2022/11/24 07:41:01;;;;;;;11.63;10.37;;;8.40;99.90;;;;;;5058518;28;20462;-68
2022/11/24 07:43:28;;;;;;;11.90;10.87;;;8.40;99.90;;;;;;5055829;28;20551;-68
2022/11/24 07:45:55;;;;;;;10.07;9.37;;;8.40;99.90;;;;;;5063631;28;20467;-68
2022/11/24 07:48:22;;;;;;;11.17;10.17;;;8.50;99.90;;;;;;5061856;28;20466;-68
2022/11/24 07:50:49;;;;;;;11.90;10.60;;;8.50;99.90;;;;;;5060123;28;20465;-68
2022/11/24 07:53:17;;;;;;;12.57;11.27;;;8.50;99.90;;;;;;5055775;28;20465;-68
2022/11/24 07:55:44;;;;;;;11.07;10.07;;;8.60;99.90;;;;;;5055582;28;20494;-68
2022/11/24 07:58:11;;;;;;;12.93;11.63;;;8.60;99.90;;;;;;5059899;28;20451;-68
2022/11/24 08:00:38;;;;;;;12.30;11.13;;;8.60;99.90;;;;;;5055256;28;20548;-68
2022/11/24 08:03:06;;;;;;;11.50;10.50;;;8.70;99.90;;;;;;5045308;28;20477;-68
2022/11/24 08:05:33;;;;;;;13.13;11.97;;;8.70;99.90;;;;;;5049608;28;21066;-68
2022/11/24 08:08:00;;;;;;;13.03;11.70;;;8.80;99.90;;;;;;5054212;28;20482;-68
2022/11/24 08:10:28;;;;;;;12.73;11.50;;;8.80;99.90;;;;;;5052551;28;20466;-68
2022/11/24 08:12:59;;;;;;;12.60;10.60;;;8.90;99.90;;;;;;5058628;28;20470;-67
2022/11/24 08:15:26;;;;;;;13.73;12.40;;;8.90;99.90;;;;;;5056652;28;20958;-68
2022/11/24 08:17:53;;;;;;;11.67;10.67;;;8.90;99.90;;;;;;5058902;28;20462;-68
2022/11/24 08:20:19;;;;;;;17.00;11.53;;;8.90;99.90;;;;;;5059182;28;21049;-68
2022/11/24 08:22:46;;;;;;;11.83;10.63;;;9.00;99.90;;;;;;5054619;28;20516;-68
2022/11/24 08:25:14;;;;;;;14.67;12.80;;;9.10;99.90;;;;;;5057546;28;20886;-68
2022/11/24 08:27:42;;;;;;;18.20;14.73;;;9.10;99.90;;;;;;5055666;28;20469;-68
2022/11/24 08:30:10;;;;;;;13.90;10.80;;;9.10;99.90;;;;;;5058869;28;20560;-68
2022/11/24 08:32:37;;;;;;;14.63;12.00;;;9.00;99.90;;;;;;5051827;28;20470;-68
2022/11/24 08:35:04;;;;;;;12.50;11.33;;;9.00;99.90;;;;;;5051435;28;20489;-68
2022/11/24 08:37:32;;;;;;;12.43;11.40;;;9.20;99.90;;;;;;5054269;28;20804;-68
2022/11/24 08:39:59;;;;;;;11.63;10.83;;;9.30;99.90;;;;;;5061542;28;20825;-69
2022/11/24 08:42:25;;;;;;;17.30;12.17;;;9.30;99.90;;;;;;5058181;28;20465;-68
2022/11/24 08:44:54;;;;;;;12.60;11.37;;;9.40;99.90;;;;;;5056338;28;20490;-68
2022/11/24 08:47:22;;;;;;;18.90;12.13;;;9.40;99.90;;;;;;5053103;28;20513;-68
2022/11/24 08:49:48;;;;;;;13.23;11.93;;;9.40;99.90;;;;;;5054323;28;20463;-67
2022/11/24 08:52:16;;;;;;;12.60;11.50;;;9.50;99.90;;;;;;5057039;28;20472;-68
2022/11/24 08:54:43;;;;;;;13.07;11.90;;;9.40;99.90;;;;;;5059626;28;20470;-68
2022/11/24 08:57:10;;;;;;;14.10;12.87;;;9.50;99.90;;;;;;5055705;28;20550;-69
2022/11/24 08:59:37;;;;;;;16.50;13.30;;;9.40;99.90;;;;;;5056957;28;20498;-69
2022/11/24 09:02:06;;;;;;;12.93;11.70;;;9.20;99.90;;;;;;5055726;28;20482;-68
2022/11/24 09:04:32;;;;;;;14.00;12.30;;;9.10;99.90;;;;;;5058757;28;20498;-68
2022/11/24 09:06:59;;;;;;;13.87;12.73;;;9.10;99.90;;;;;;5060478;28;20474;-68
2022/11/24 09:09:26;;;;;;;11.73;10.60;;;9.10;99.90;;;;;;5056141;28;20993;-68
2022/11/24 09:11:53;;;;;;;13.07;11.30;;;9.10;99.90;;;;;;5055347;28;20477;-69
2022/11/24 09:14:20;;;;;;;17.77;12.10;;;9.10;99.90;;;;;;5059822;28;20469;-68
2022/11/24 09:16:48;;;;;;;14.03;11.60;;;9.20;99.90;;;;;;5058326;28;20469;-69
2022/11/24 09:19:16;;;;;;;13.30;11.90;;;9.20;99.90;;;;;;5058415;28;21009;-69
2022/11/24 09:21:42;;;;;;;12.40;10.93;;;9.30;99.90;;;;;;5057760;28;20468;-68
2022/11/24 09:24:10;;;;;;;12.73;11.70;;;9.30;99.90;;;;;;5058028;28;20502;-70
2022/11/24 09:26:38;;;;;;;12.57;11.43;;;9.30;99.90;;;;;;5060438;28;20463;-69
2022/11/24 09:29:07;;;;;;;13.90;12.23;;;9.30;99.90;;;;;;5068026;28;20460;-69
2022/11/24 09:31:38;;;;;;;12.27;11.37;;;9.30;99.90;;;;;;5065133;28;20605;-69
2022/11/24 09:34:07;;;;;;;18.90;12.30;;;9.30;99.90;;;;;;5062599;28;20470;-69
2022/11/24 09:36:36;;;;;;;14.83;11.90;;;9.30;99.90;;;;;;5064267;28;20466;-69
2022/11/24 09:39:04;;;;;;;13.13;11.73;;;9.40;99.90;;;;;;5056477;28;20469;-71
2022/11/24 09:41:41;;;;;;;12.83;11.47;;;9.30;99.90;;;;;;5065778;28;20490;-71
2022/11/24 09:44:17;;;;;;;15.03;11.90;;;9.30;99.90;;;;;;5059741;28;20580;-71
2022/11/24 09:46:57;;;;;;;13.00;11.70;;;9.30;99.90;;;;;;5059341;28;20976;-70
2022/11/24 09:49:30;;;;;;;15.33;11.20;;;9.40;99.90;;;;;;5050294;28;20455;-71
2022/11/24 09:52:03;;;;;;;12.10;10.90;;;9.40;99.90;;;;;;5056641;28;20486;-73
2022/11/24 09:54:30;;;;;;;20.67;13.00;;;9.40;99.90;;;;;;5065148;28;20459;-73
2022/11/24 09:57:00;;;;;;;17.33;13.37;;;9.50;99.90;;;;;;5065207;28;20455;-70
2022/11/24 09:59:28;;;;;;;12.27;11.13;;;9.60;99.90;;;;;;5061284;28;20508;-71
2022/11/24 10:01:55;;;;;;;13.37;11.90;;;9.60;99.90;;;;;;5056854;28;20462;-71
2022/11/24 10:04:26;;;;;;;12.83;11.60;;;9.60;99.90;;;;;;5060513;28;20521;-71
2022/11/24 10:07:04;;;;;;;13.33;12.03;;;9.60;99.90;;;;;;5062831;28;21037;-71
2022/11/24 10:09:53;;;;;;;12.57;11.40;;;9.60;99.90;;;;;;5061755;28;20514;-71
2022/11/24 10:12:30;;;;;;;18.97;12.07;;;9.70;99.90;;;;;;5063111;28;20824;-71
2022/11/24 10:15:24;;;;;;;15.57;12.53;;;9.70;99.90;;;;;;5064132;28;20493;-73
2022/11/24 10:18:24;;;;;;;13.13;11.87;;;9.80;99.90;;;;;;5064658;28;20470;-69
2022/11/24 10:21:01;;;;;;;13.60;12.27;;;9.80;99.90;;;;;;5057323;28;20863;-69
2022/11/24 10:23:48;;;;;;;18.73;11.83;;;9.90;99.90;;;;;;5066709;28;20461;-71
2022/11/24 10:26:19;;;;;;;19.67;12.60;;;10.00;99.90;;;;;;5060309;28;20801;-69
2022/11/24 10:28:52;;;;;;;12.50;11.40;;;10.00;99.90;;;;;;5055315;28;20458;-69
2022/11/24 10:31:28;;;;;;;19.23;12.17;;;10.10;99.90;;;;;;5061700;28;20856;-69
2022/11/24 10:33:57;;;;;;;13.63;12.33;;;10.10;99.90;;;;;;5060250;28;20478;-69
2022/11/24 10:36:33;;;;;;;18.20;12.60;;;10.20;99.90;;;;;;5061529;28;20466;-69
2022/11/24 10:39:10;;;;;;;13.50;12.23;;;10.20;99.90;;;;;;5058730;28;20465;-70
2022/11/24 10:41:43;;;;;;;16.27;12.33;;;10.30;99.90;;;;;;5054740;28;20830;-69
2022/11/24 10:44:14;;;;;;;14.17;11.97;;;10.30;99.90;;;;;;5049463;28;20862;-71
2022/11/24 10:46:41;;;;;;;13.63;12.40;;;10.40;99.90;;;;;;5054799;28;20455;-72
2022/11/24 10:49:17;;;;;;;14.40;12.60;;;10.40;99.90;;;;;;5052203;28;20498;-68
2022/11/24 10:51:52;;;;;;;15.90;13.23;;;10.70;99.90;;;;;;5063204;28;20489;-69
2022/11/24 10:54:22;;;;;;;18.77;14.20;;;11.20;99.90;;;;;;5063808;28;20971;-69
2022/11/24 10:56:52;;;;;;;22.27;13.40;;;11.80;99.90;;;;;;5055598;28;20464;-69
2022/11/24 10:59:37;;;;;;;17.43;14.10;;;12.10;99.90;;;;;;5062018;28;20690;-69
2022/11/24 11:02:36;;;;;;;16.43;14.77;;;12.40;99.90;;;;;;5050428;28;20463;-69
2022/11/24 11:05:33;;;;;;;14.70;13.37;;;12.80;99.90;;;;;;5064655;28;20537;-69
2022/11/24 11:08:18;;;;;;;15.83;14.13;;;13.00;99.90;;;;;;5062308;28;20463;-69
2022/11/24 11:10:48;;;;;;;16.47;14.93;;;13.00;99.90;;;;;;5060898;28;20467;-69
2022/11/24 11:13:25;;;;;;;15.67;14.37;;;12.90;99.90;;;;;;5061090;28;20881;-71
2022/11/24 11:15:53;;;;;;;15.50;14.00;;;12.60;99.90;;;;;;5065893;28;20467;-69
2022/11/24 11:18:21;;;;;;;16.20;14.70;;;12.60;99.90;;;;;;5060383;28;20454;-68
2022/11/24 11:20:53;;;;;;;14.83;13.40;;;12.50;99.90;;;;;;5064956;28;20475;-71
2022/11/24 11:23:25;;;;;;;15.90;14.63;;;12.40;99.90;;;;;;5059890;28;20466;-71
2022/11/24 11:26:17;;;;;;;15.30;14.10;;;12.30;99.90;;;;;;5058469;28;20829;-69
2022/11/24 11:28:57;;;;;;;14.43;13.30;;;12.40;99.90;;;;;;5059685;28;20463;-70
2022/11/24 11:31:24;;;;;;;18.17;14.50;;;12.80;99.90;;;;;;5061087;28;20519;-71
2022/11/24 11:33:57;;;;;;;16.90;15.13;;;13.20;99.90;;;;;;5059799;28;20550;-69
2022/11/24 11:36:27;;;;;;;23.83;17.27;;;13.60;99.90;;;;;;5061208;28;20468;-70
2022/11/24 11:38:54;;;;;;;17.20;15.37;;;13.50;99.90;;;;;;5064770;28;20486;-69
2022/11/24 11:41:28;;;;;;;17.20;15.57;;;13.70;99.90;;;;;;5059593;28;20487;-70
2022/11/24 11:44:09;;;;;;;16.73;14.80;;;13.10;99.90;;;;;;5057029;28;20822;-69
2022/11/24 11:46:36;;;;;;;16.03;14.63;;;13.10;99.90;;;;;;5052303;28;20953;-69
2022/11/24 11:49:04;;;;;;;17.30;16.00;;;13.30;99.90;;;;;;5059876;28;20851;-69
2022/11/24 11:51:59;;;;;;;17.43;15.60;;;13.10;99.90;;;;;;5059023;28;20822;-70
2022/11/24 11:54:34;;;;;;;15.83;14.80;;;13.10;99.90;;;;;;5058052;28;20466;-69
2022/11/24 11:57:10;;;;;;;17.70;15.77;;;13.40;99.90;;;;;;5066433;28;20865;-69
2022/11/24 11:59:53;;;;;;;23.73;16.73;;;13.80;99.90;;;;;;5054769;28;20460;-70
2022/11/24 12:02:56;;;;;;;17.40;15.70;;;14.30;99.90;;;;;;5055838;28;20463;-69
2022/11/24 12:05:30;;;;;;;18.17;16.57;;;14.50;99.90;;;;;;5049903;28;20490;-69
2022/11/24 12:08:19;;;;;;;20.57;17.03;;;14.30;99.90;;;;;;5060568;28;20475;-70
2022/11/24 12:10:53;;;;;;;17.93;16.23;;;14.40;99.90;;;;;;5056360;28;20459;-70
2022/11/24 12:13:52;;;;;;;21.37;16.30;;;14.50;99.90;;;;;;5056822;28;20560;-70
2022/11/24 12:16:30;;;;;;;20.10;18.03;;;14.90;99.90;;;;;;5051567;28;20542;-70
2022/11/24 12:19:08;;;;;;;17.77;16.10;;;14.90;99.90;;;;;;5059868;28;20470;-70
2022/11/24 12:21:43;;;;;;;17.93;16.10;;;15.10;99.90;;;;;;5057785;28;20660;-69
2022/11/24 12:24:17;;;;;;;18.30;15.87;;;15.10;99.90;;;;;;5059142;28;20938;-71
2022/11/24 12:26:47;;;;;;;18.27;16.53;;;14.80;99.90;;;;;;5054666;28;20471;-70
2022/11/24 12:29:38;;;;;;;17.80;16.07;;;14.90;99.90;;;;;;5054483;28;20478;-69
2022/11/24 12:32:17;;;;;;;21.30;16.43;;;14.90;99.90;;;;;;5057488;28;20884;-71
2022/11/24 12:34:53;;;;;;;18.00;16.20;;;15.00;99.90;;;;;;5057586;28;21041;-70
2022/11/24 12:37:35;;;;;;;19.23;17.23;;;15.20;99.90;;;;;;5059926;28;20612;-70
2022/11/24 12:40:10;;;;;;;21.00;18.90;;;15.70;99.90;;;;;;5060789;28;20810;-71
2022/11/24 12:42:46;;;;;;;24.60;17.90;;;15.70;99.90;;;;;;5060845;28;20454;-71
2022/11/24 12:45:16;;;;;;;18.47;16.63;;;15.00;99.90;;;;;;5041308;28;20483;-71
2022/11/24 12:48:05;;;;;;;19.30;17.50;;;15.00;99.90;;;;;;5054182;28;20465;-72
2022/11/24 12:50:37;;;;;;;18.33;16.80;;;14.80;99.90;;;;;;5052634;28;20981;-72
2022/11/24 12:53:08;;;;;;;17.77;16.07;;;15.00;99.90;;;;;;5052506;28;20848;-71